Airfield :
LOGIN :

Register | Disclaimer

   EN    FR    IT 

 










Legend :    VFR   Marginal VFR   IFR   Intensive IFR   Very Intensive IFR
Visi :
Ceiling :
>= 8 km
>= 3000ft
5 to 8 km
1000 to 3000 ft
1500m to 5 km
500 to 1000 ft
800 to 1500m
200 to 500 ft
< 800m
< 200 ft
Symbols :   Thunderstorms  Fog  Heavy snow  Heavy precipitations  Wind > 20 kt
SIGMETs :     Misc.  Thunderstorms  Icing  Turbulence  Mountain Waves  Volcanic Ashes






- Airport Elevation : 30 ft
- IATA code : CFN


EIDL - Donegal

CURRENT METAR :
  • 311630Z 35006KT CAVOK 22/14 Q1022

EXPIRED METARs :
  • 311600Z 35007KT CAVOK 22/12 Q1022
  • 311530Z 01007KT 330V050 CAVOK 21/13 Q1022
  • 311500Z 34007KT 300V010 CAVOK 19/13 Q1022
  • 311430Z 28005KT 230V330 CAVOK 20/14 Q1022

TAF TAF EIDL
Valid from the 31 at 15:00 until the 01 at 00:00 UTC


311400Z 3115/3124 29005KT CAVOK
BECMG 3115/3117 15009KT



MET'MAP, your aeronautical weather chart ! - Copyright ORBIFLY December 2007 - Disclaimer

ORBIFLY MET'MAP TEAM :

Programming & Development : Alexandra Zaïnal
Concept & original design : Baudouin d'Aumeries
Assistance for programming : Marc-Olivier Méhu
Technical & hardware support : Manuel Goepfert

Contact : metmap@orbifly.com




SOURCES & CREDITS :

   NOAA